createdAt,value
2022-10-08T00:00:59.326Z,66.00
2022-10-08T00:03:28.882Z,65.40
2022-10-08T00:06:02.124Z,66.00
2022-10-08T00:08:30.416Z,66.40
2022-10-08T00:11:00.257Z,66.00
2022-10-08T00:13:29.159Z,65.40
2022-10-08T00:15:56.841Z,66.00
2022-10-08T00:18:23.484Z,66.00
2022-10-08T00:20:50.092Z,66.70
2022-10-08T00:23:16.925Z,65.40
2022-10-08T00:25:44.696Z,66.00
2022-10-08T00:28:13.778Z,65.90
2022-10-08T00:30:41.534Z,66.00
2022-10-08T00:33:10.025Z,66.00
2022-10-08T00:35:38.538Z,66.00
2022-10-08T00:38:06.025Z,66.00
2022-10-08T00:40:40.607Z,66.00
2022-10-08T00:43:11.070Z,65.60
2022-10-08T00:45:38.484Z,66.00
2022-10-08T00:48:05.166Z,65.90
2022-10-08T00:50:34.685Z,66.00
2022-10-08T00:53:07.700Z,66.00
2022-10-08T00:55:38.838Z,66.00
2022-10-08T00:58:16.577Z,66.00
2022-10-08T01:00:44.521Z,65.90
2022-10-08T01:03:11.281Z,65.30
2022-10-08T01:06:02.775Z,65.80
2022-10-08T01:08:51.347Z,66.00
2022-10-08T01:11:33.915Z,65.80
2022-10-08T01:14:39.671Z,65.90
2022-10-08T01:17:25.845Z,65.90
2022-10-08T01:20:14.139Z,65.90
2022-10-08T01:22:43.613Z,65.90
2022-10-08T01:25:40.875Z,65.90
2022-10-08T01:28:14.453Z,65.80
2022-10-08T01:30:51.918Z,65.20
2022-10-08T01:33:24.293Z,65.30
2022-10-08T01:35:57.143Z,65.80
2022-10-08T01:38:27.510Z,65.80
2022-10-08T01:40:58.982Z,65.90
2022-10-08T01:43:30.106Z,65.80
2022-10-08T01:46:03.530Z,65.80
2022-10-08T01:48:35.771Z,65.70
2022-10-08T01:51:17.646Z,65.70
2022-10-08T01:53:47.170Z,65.70
2022-10-08T01:56:18.882Z,65.70
2022-10-08T01:58:54.190Z,65.80
2022-10-08T02:01:49.784Z,65.70
2022-10-08T02:04:37.327Z,65.20
2022-10-08T02:07:09.642Z,65.80
2022-10-08T02:09:44.925Z,65.80
2022-10-08T02:12:12.402Z,65.10
2022-10-08T02:14:42.866Z,65.70
2022-10-08T02:17:35.647Z,65.70
2022-10-08T02:20:26.195Z,65.70
2022-10-08T02:22:59.273Z,65.70
2022-10-08T02:25:45.652Z,65.80
2022-10-08T02:28:12.240Z,65.80
2022-10-08T02:30:46.417Z,65.70
2022-10-08T02:33:16.707Z,65.10
2022-10-08T02:35:49.372Z,65.70
2022-10-08T02:38:24.681Z,65.70
2022-10-08T02:40:54.517Z,65.70
2022-10-08T02:43:25.770Z,65.70
2022-10-08T02:46:03.683Z,65.80
2022-10-08T02:48:32.469Z,65.70
2022-10-08T02:51:07.373Z,65.90
2022-10-08T02:53:37.940Z,65.00
2022-10-08T02:56:31.014Z,65.60
2022-10-08T02:58:57.987Z,65.70
2022-10-08T03:01:44.248Z,65.70
2022-10-08T03:04:36.121Z,65.60
2022-10-08T03:07:03.202Z,65.60
2022-10-08T03:09:35.812Z,65.70
2022-10-08T03:12:02.718Z,65.70
2022-10-08T03:14:33.976Z,65.70
2022-10-08T03:17:00.937Z,65.60
2022-10-08T03:19:27.866Z,65.70
2022-10-08T03:21:56.425Z,65.70
2022-10-08T03:24:23.030Z,65.60
2022-10-08T03:26:49.621Z,65.60
2022-10-08T03:29:16.241Z,65.60
2022-10-08T03:31:42.822Z,65.60
2022-10-08T03:34:09.720Z,65.60
2022-10-08T03:36:36.325Z,65.60
2022-10-08T03:39:03.018Z,65.70
2022-10-08T03:41:31.297Z,65.60
2022-10-08T03:43:59.088Z,65.60
2022-10-08T03:46:25.806Z,65.70
2022-10-08T03:48:52.524Z,65.60
2022-10-08T03:51:20.609Z,65.60
2022-10-08T03:53:47.490Z,65.60
2022-10-08T03:56:20.052Z,65.60
2022-10-08T03:58:51.884Z,65.60
2022-10-08T04:01:18.600Z,65.60
2022-10-08T04:03:45.325Z,65.60
2022-10-08T04:06:12.769Z,65.60
2022-10-08T04:08:39.634Z,65.60
2022-10-08T04:11:08.755Z,65.60
2022-10-08T04:13:36.573Z,65.60
2022-10-08T04:16:09.975Z,65.60
2022-10-08T04:18:36.707Z,65.50
2022-10-08T04:21:06.875Z,65.60
2022-10-08T04:23:35.781Z,65.60
2022-10-08T04:26:03.094Z,65.60
2022-10-08T04:28:30.425Z,65.50
2022-10-08T04:31:00.942Z,65.60
2022-10-08T04:33:29.165Z,65.50
2022-10-08T04:35:59.906Z,65.60
2022-10-08T04:38:28.103Z,64.90
2022-10-08T04:41:22.330Z,65.50
2022-10-08T04:43:49.390Z,66.20
2022-10-08T04:46:18.171Z,65.60
2022-10-08T04:48:54.261Z,64.90
2022-10-08T04:51:23.232Z,65.00
2022-10-08T04:53:50.646Z,65.60
2022-10-08T04:56:25.973Z,65.60
2022-10-08T04:58:54.945Z,65.50
2022-10-08T05:01:22.295Z,65.50
2022-10-08T05:03:51.613Z,65.50
2022-10-08T05:06:19.914Z,65.00
2022-10-08T05:08:47.207Z,64.90
2022-10-08T05:11:14.434Z,64.90
2022-10-08T05:13:41.517Z,65.50
2022-10-08T05:16:13.333Z,64.90
2022-10-08T05:18:41.597Z,65.50
2022-10-08T05:21:17.422Z,64.90
2022-10-08T05:23:44.462Z,64.90
2022-10-08T05:26:35.918Z,65.50
2022-10-08T05:29:10.527Z,65.50
2022-10-08T05:31:37.997Z,65.50
2022-10-08T05:34:05.024Z,66.00
2022-10-08T05:36:34.357Z,65.50
2022-10-08T05:39:02.263Z,65.50
2022-10-08T05:41:31.475Z,65.00
2022-10-08T05:43:58.817Z,65.50
2022-10-08T05:46:27.370Z,65.50
2022-10-08T05:48:55.337Z,65.50
2022-10-08T05:51:22.738Z,65.50
2022-10-08T05:53:51.460Z,65.50
2022-10-08T05:56:20.642Z,65.50
2022-10-08T05:58:48.215Z,65.50
2022-10-08T06:01:20.716Z,65.80
2022-10-08T06:03:54.711Z,65.80
2022-10-08T06:06:22.911Z,65.80
2022-10-08T06:09:01.802Z,65.90
2022-10-08T06:11:30.178Z,65.90
2022-10-08T06:13:58.755Z,65.90
2022-10-08T06:16:26.518Z,66.30
2022-10-08T06:18:53.432Z,66.00
2022-10-08T06:21:22.589Z,65.40
2022-10-08T06:23:52.449Z,63.70
2022-10-08T06:26:19.902Z,65.90
2022-10-08T06:28:46.574Z,65.90
2022-10-08T06:31:13.717Z,65.90
2022-10-08T06:33:40.668Z,66.00
2022-10-08T06:36:17.849Z,65.90
2022-10-08T06:39:09.115Z,66.00
2022-10-08T06:41:35.940Z,66.10
2022-10-08T06:44:04.362Z,66.00
2022-10-08T06:46:32.296Z,66.00
2022-10-08T06:49:00.513Z,66.10
2022-10-08T06:51:27.547Z,66.00
2022-10-08T06:53:56.953Z,66.00
2022-10-08T06:56:25.010Z,66.00
2022-10-08T06:58:52.568Z,66.20
2022-10-08T07:01:26.847Z,66.10
2022-10-08T07:03:59.441Z,66.20
2022-10-08T07:06:26.586Z,66.10
2022-10-08T07:08:54.769Z,66.20
2022-10-08T07:11:22.366Z,65.70
2022-10-08T07:13:49.076Z,66.10
2022-10-08T07:16:21.631Z,66.10
2022-10-08T07:18:50.636Z,66.10
2022-10-08T07:21:19.188Z,66.10
2022-10-08T07:23:45.809Z,66.10
2022-10-08T07:26:14.612Z,66.10
2022-10-08T07:28:44.046Z,66.10
2022-10-08T07:31:16.600Z,66.10
2022-10-08T07:33:43.241Z,66.00
2022-10-08T07:36:12.070Z,66.00
2022-10-08T07:38:39.655Z,66.00
2022-10-08T07:41:06.989Z,66.10
2022-10-08T07:43:33.734Z,66.10
2022-10-08T07:46:00.411Z,65.50
2022-10-08T07:48:33.685Z,65.50
2022-10-08T07:51:11.268Z,65.40
2022-10-08T07:53:38.797Z,65.90
2022-10-08T07:56:06.537Z,65.30
2022-10-08T07:58:33.361Z,65.40
2022-10-08T08:01:01.256Z,65.40
2022-10-08T08:03:27.894Z,65.40
2022-10-08T08:05:59.905Z,65.40
2022-10-08T08:08:26.474Z,65.50
2022-10-08T08:10:57.635Z,66.00
2022-10-08T08:13:24.264Z,65.30
2022-10-08T08:16:02.361Z,65.40
2022-10-08T08:18:30.362Z,65.50
2022-10-08T08:20:58.986Z,65.30
2022-10-08T08:23:29.845Z,65.40
2022-10-08T08:28:23.848Z,65.40
2022-10-08T08:30:50.503Z,65.40
2022-10-08T08:33:17.089Z,65.40
2022-10-08T08:35:53.534Z,65.40
2022-10-08T08:38:20.162Z,65.40
2022-10-08T08:40:47.223Z,65.40
2022-10-08T08:43:15.234Z,65.40
2022-10-08T08:45:47.608Z,65.30
2022-10-08T08:48:21.405Z,65.50
2022-10-08T08:50:52.607Z,65.40
2022-10-08T08:53:19.725Z,65.40
2022-10-08T08:55:53.974Z,65.40
2022-10-08T08:58:34.725Z,65.90
2022-10-08T09:01:10.104Z,66.10
2022-10-08T09:03:50.654Z,66.00
2022-10-08T09:06:19.958Z,66.00
2022-10-08T09:09:05.206Z,65.40
2022-10-08T09:11:31.790Z,66.00
2022-10-08T09:14:14.479Z,66.00
2022-10-08T09:16:41.518Z,66.00
2022-10-08T09:19:09.340Z,65.40
2022-10-08T09:21:35.942Z,65.50
2022-10-08T09:24:02.877Z,66.00
2022-10-08T09:26:36.209Z,65.40
2022-10-08T09:29:05.563Z,66.00
2022-10-08T09:31:43.936Z,65.30
2022-10-08T09:34:10.477Z,65.30
2022-10-08T09:37:23.825Z,65.90
2022-10-08T09:40:13.446Z,65.30
2022-10-08T09:42:40.243Z,65.30
2022-10-08T09:45:33.886Z,65.20
2022-10-08T09:48:16.620Z,65.80
2022-10-08T09:50:53.672Z,65.80
2022-10-08T09:53:22.728Z,65.40
2022-10-08T09:55:53.369Z,65.30
2022-10-08T09:58:20.673Z,65.20
2022-10-08T10:00:57.327Z,65.80
2022-10-08T10:03:25.643Z,65.30
2022-10-08T10:05:55.061Z,66.00
2022-10-08T10:08:48.482Z,65.90
2022-10-08T10:11:32.470Z,65.20
2022-10-08T10:14:05.950Z,65.20
2022-10-08T10:16:40.854Z,65.90
2022-10-08T10:19:14.925Z,65.80
2022-10-08T10:21:52.889Z,65.90
2022-10-08T10:24:48.744Z,65.80
2022-10-08T10:27:30.950Z,65.70
2022-10-08T10:30:14.298Z,65.70
2022-10-08T10:32:48.536Z,65.20
2022-10-08T10:35:25.017Z,65.80
2022-10-08T10:38:03.024Z,65.90
2022-10-08T10:40:30.961Z,65.90
2022-10-08T10:43:39.389Z,65.90
2022-10-08T10:46:30.198Z,65.90
2022-10-08T10:48:57.589Z,65.90
2022-10-08T10:52:10.772Z,65.30
2022-10-08T10:54:54.663Z,65.90
2022-10-08T10:57:46.131Z,65.90
2022-10-08T11:00:41.090Z,65.50
2022-10-08T11:03:33.697Z,66.10
2022-10-08T11:06:35.909Z,66.00
2022-10-08T11:09:33.419Z,66.10
2022-10-08T11:12:27.661Z,65.40
2022-10-08T11:15:04.114Z,65.90
2022-10-08T11:17:45.392Z,66.00
2022-10-08T11:20:47.697Z,65.50
2022-10-08T11:23:41.144Z,65.50
2022-10-08T11:26:28.941Z,65.60
2022-10-08T11:29:09.723Z,65.60
2022-10-08T11:31:45.098Z,65.50
2022-10-08T11:34:23.288Z,66.30
2022-10-08T11:37:03.876Z,65.70
2022-10-08T11:39:52.343Z,65.70
2022-10-08T11:42:30.185Z,65.80
2022-10-08T11:45:25.716Z,65.80
2022-10-08T11:47:54.379Z,65.80
2022-10-08T11:50:37.522Z,65.90
2022-10-08T11:53:10.286Z,66.40
2022-10-08T11:55:38.081Z,65.90
2022-10-08T11:58:09.116Z,66.50
2022-10-08T12:00:47.378Z,66.00
2022-10-08T12:03:30.304Z,66.20
2022-10-08T12:06:15.595Z,66.70
2022-10-08T12:08:48.766Z,66.00
2022-10-08T12:11:37.319Z,66.70
2022-10-08T12:14:16.783Z,66.00
2022-10-08T12:16:55.360Z,66.00
2022-10-08T12:19:36.773Z,66.00
2022-10-08T12:22:15.318Z,66.30
2022-10-08T12:24:49.586Z,66.20
2022-10-08T12:27:17.000Z,66.10
2022-10-08T12:29:58.600Z,66.20
2022-10-08T12:32:31.594Z,66.70
2022-10-08T12:34:59.303Z,66.20
2022-10-08T12:37:52.587Z,66.30
2022-10-08T12:40:36.609Z,66.10
2022-10-08T12:43:24.783Z,66.60
2022-10-08T12:45:56.087Z,66.60
2022-10-08T12:48:36.955Z,66.60
2022-10-08T12:51:14.890Z,66.70
2022-10-08T12:53:46.182Z,66.80
2022-10-08T12:56:26.065Z,66.80
2022-10-08T12:58:54.506Z,66.80
2022-10-08T13:01:21.890Z,66.80
2022-10-08T13:04:07.690Z,66.80
2022-10-08T13:06:34.681Z,66.80
2022-10-08T13:09:12.121Z,66.80
2022-10-08T13:11:38.736Z,66.90
2022-10-08T13:14:05.386Z,66.30
2022-10-08T13:16:46.652Z,66.90
2022-10-08T13:19:26.992Z,66.80
2022-10-08T13:22:02.059Z,67.60
2022-10-08T13:24:31.378Z,67.00
2022-10-08T13:26:58.266Z,67.00
2022-10-08T13:29:26.148Z,66.90
2022-10-08T13:32:13.493Z,66.40
2022-10-08T13:34:44.353Z,66.90
2022-10-08T13:37:22.915Z,67.00
2022-10-08T13:39:56.731Z,67.00
2022-10-08T13:42:27.460Z,66.90
2022-10-08T13:44:54.414Z,67.00
2022-10-08T13:47:22.071Z,66.90
2022-10-08T13:49:48.911Z,66.90
2022-10-08T13:52:25.191Z,66.80
2022-10-08T13:54:56.721Z,66.90
2022-10-08T13:57:23.302Z,66.90
2022-10-08T13:59:49.940Z,66.60
2022-10-08T14:02:16.609Z,66.70
2022-10-08T14:04:43.243Z,66.80
2022-10-08T14:07:23.677Z,66.60
2022-10-08T14:09:51.389Z,66.60
2022-10-08T14:12:23.484Z,66.70
2022-10-08T14:14:50.059Z,66.60
2022-10-08T14:17:16.642Z,66.60
2022-10-08T14:19:43.726Z,66.70
2022-10-08T14:22:12.179Z,66.10
2022-10-08T14:24:39.127Z,66.70
2022-10-08T14:27:08.338Z,66.80
2022-10-08T14:29:35.618Z,66.90
2022-10-08T14:32:03.522Z,66.90
2022-10-08T14:34:30.217Z,66.90
2022-10-08T14:36:57.810Z,67.00
2022-10-08T14:39:25.935Z,67.00
2022-10-08T14:41:52.954Z,66.80
2022-10-08T14:44:22.279Z,66.80
2022-10-08T14:46:52.635Z,66.90
2022-10-08T14:49:20.282Z,67.00
2022-10-08T14:51:46.949Z,67.00
2022-10-08T14:54:13.645Z,66.90
2022-10-08T14:56:42.541Z,66.90
2022-10-08T14:59:10.330Z,66.80
2022-10-08T15:01:37.086Z,66.30
2022-10-08T15:04:04.698Z,66.90
2022-10-08T15:06:31.734Z,66.50
2022-10-08T15:08:58.402Z,66.90
2022-10-08T15:11:25.078Z,66.90
2022-10-08T15:13:55.403Z,67.00
2022-10-08T15:16:22.553Z,66.50
2022-10-08T15:18:49.290Z,66.90
2022-10-08T15:21:16.942Z,66.30
2022-10-08T15:23:43.524Z,66.80
2022-10-08T15:26:14.723Z,66.80
2022-10-08T15:28:42.222Z,66.90
2022-10-08T15:31:16.147Z,66.90
2022-10-08T15:33:50.760Z,67.00
2022-10-08T15:36:26.589Z,66.90
2022-10-08T15:39:01.612Z,66.50
2022-10-08T15:41:30.293Z,66.80
2022-10-08T15:44:10.722Z,66.70
2022-10-08T15:46:37.699Z,67.20
2022-10-08T15:49:04.660Z,66.60
2022-10-08T15:51:32.018Z,66.70
2022-10-08T15:53:59.266Z,67.30
2022-10-08T15:56:26.585Z,67.20
2022-10-08T15:58:53.599Z,67.20
2022-10-08T16:01:22.580Z,66.70
2022-10-08T16:03:51.837Z,67.30
2022-10-08T16:06:21.665Z,67.20
2022-10-08T16:08:48.511Z,67.20
2022-10-08T16:11:27.665Z,67.10
2022-10-08T16:14:00.018Z,66.70
2022-10-08T16:16:27.016Z,66.60
2022-10-08T16:18:58.795Z,66.50
2022-10-08T16:21:27.229Z,66.50
2022-10-08T16:23:53.880Z,67.10
2022-10-08T16:26:21.402Z,66.90
2022-10-08T16:28:54.974Z,66.40
2022-10-08T16:31:21.746Z,66.30
2022-10-08T16:33:48.387Z,66.90
2022-10-08T16:36:14.990Z,66.90
2022-10-08T16:38:41.831Z,66.90
2022-10-08T16:41:32.525Z,66.90
2022-10-08T16:44:03.067Z,66.90
2022-10-08T16:46:36.073Z,66.90
2022-10-08T16:49:04.408Z,67.00
2022-10-08T16:51:34.206Z,67.00
2022-10-08T16:54:02.055Z,66.90
2022-10-08T16:56:31.353Z,66.90
2022-10-08T16:59:00.813Z,66.90
2022-10-08T17:01:28.479Z,66.30
2022-10-08T17:03:55.751Z,66.90
2022-10-08T17:06:23.732Z,66.90
2022-10-08T17:08:51.462Z,66.90
2022-10-08T17:11:19.238Z,66.90
2022-10-08T17:13:55.523Z,66.80
2022-10-08T17:16:24.437Z,66.80
2022-10-08T17:18:55.714Z,66.80
2022-10-08T17:21:22.897Z,66.80
2022-10-08T17:23:50.235Z,66.80
2022-10-08T17:26:19.834Z,66.80
2022-10-08T17:28:47.943Z,66.80
2022-10-08T17:31:29.200Z,66.60
2022-10-08T17:33:55.773Z,66.80
2022-10-08T17:36:30.314Z,66.70
2022-10-08T17:38:59.294Z,66.80
2022-10-08T17:41:30.152Z,66.80
2022-10-08T17:43:59.081Z,66.80
2022-10-08T17:46:30.801Z,66.80
2022-10-08T17:48:57.914Z,66.80
2022-10-08T17:51:26.310Z,66.50
2022-10-08T17:54:01.561Z,67.30
2022-10-08T17:56:29.160Z,67.20
2022-10-08T17:58:56.340Z,67.60
2022-10-08T18:01:25.347Z,67.30
2022-10-08T18:03:57.364Z,68.10
2022-10-08T18:06:25.610Z,67.90
2022-10-08T18:09:01.553Z,67.80
2022-10-08T18:11:30.106Z,68.00
2022-10-08T18:13:56.721Z,68.00
2022-10-08T18:16:25.144Z,68.10
2022-10-08T18:18:52.089Z,68.20
2022-10-08T18:21:19.821Z,68.20
2022-10-08T18:23:48.046Z,68.20
2022-10-08T18:26:23.502Z,68.40
2022-10-08T18:28:52.100Z,68.40
2022-10-08T18:31:20.641Z,68.00
2022-10-08T18:33:50.233Z,67.90
2022-10-08T18:36:18.512Z,68.40
2022-10-08T18:38:47.240Z,68.40
2022-10-08T18:41:20.172Z,68.50
2022-10-08T18:43:49.058Z,68.00
2022-10-08T18:46:18.827Z,67.90
2022-10-08T18:48:45.713Z,68.60
2022-10-08T18:51:23.844Z,68.00
2022-10-08T18:53:51.446Z,68.60
2022-10-08T18:56:28.771Z,68.00
2022-10-08T18:59:01.512Z,68.60
2022-10-08T19:01:31.123Z,67.80
2022-10-08T19:03:59.896Z,67.90
2022-10-08T19:06:29.495Z,67.80
2022-10-08T19:08:57.387Z,67.70
2022-10-08T19:11:32.878Z,67.80
2022-10-08T19:14:00.978Z,68.30
2022-10-08T19:16:28.104Z,68.40
2022-10-08T19:19:02.208Z,68.30
2022-10-08T19:21:30.282Z,68.30
2022-10-08T19:23:57.913Z,67.70
2022-10-08T19:26:25.947Z,68.30
2022-10-08T19:28:53.708Z,68.20
2022-10-08T19:31:38.590Z,68.20
2022-10-08T19:34:07.097Z,68.30
2022-10-08T19:36:36.973Z,68.20
2022-10-08T19:39:18.369Z,68.10
2022-10-08T19:41:45.148Z,68.10
2022-10-08T19:44:11.842Z,68.20
2022-10-08T19:46:38.799Z,68.10
2022-10-08T19:49:07.222Z,68.10
2022-10-08T19:51:34.194Z,68.10
2022-10-08T19:54:01.449Z,68.10
2022-10-08T19:56:28.945Z,68.10
2022-10-08T19:58:55.993Z,68.10
2022-10-08T20:01:32.437Z,67.50
2022-10-08T20:04:00.564Z,68.10
2022-10-08T20:06:30.828Z,68.00
2022-10-08T20:09:00.967Z,68.00
2022-10-08T20:11:29.262Z,67.90
2022-10-08T20:13:56.312Z,67.90
2022-10-08T20:16:29.140Z,67.90
2022-10-08T20:19:01.371Z,67.90
2022-10-08T20:21:30.103Z,67.90
2022-10-08T20:23:56.752Z,67.80
2022-10-08T20:26:23.329Z,67.80
2022-10-08T20:28:54.491Z,67.90
2022-10-08T20:31:23.732Z,67.20
2022-10-08T20:34:00.318Z,67.80
2022-10-08T20:36:27.616Z,67.70
2022-10-08T20:38:54.777Z,67.70
2022-10-08T20:41:23.614Z,67.70
2022-10-08T20:43:55.966Z,67.70
2022-10-08T20:46:22.799Z,67.70
2022-10-08T20:48:49.494Z,67.70
2022-10-08T20:51:18.527Z,67.70
2022-10-08T20:53:49.959Z,67.60
2022-10-08T20:56:17.664Z,67.50
2022-10-08T20:58:44.493Z,67.50
2022-10-08T21:01:12.921Z,66.80
2022-10-08T21:03:43.720Z,67.50
2022-10-08T21:06:13.607Z,67.60
2022-10-08T21:08:42.474Z,67.50
2022-10-08T21:11:18.380Z,66.80
2022-10-08T21:13:45.445Z,66.90
2022-10-08T21:16:15.480Z,67.30
2022-10-08T21:18:42.922Z,67.40
2022-10-08T21:21:12.218Z,67.40
2022-10-08T21:23:39.221Z,66.70
2022-10-08T21:26:20.863Z,67.40
2022-10-08T21:28:49.622Z,66.80
2022-10-08T21:31:18.371Z,66.70
2022-10-08T21:33:47.772Z,67.30
2022-10-08T21:36:36.190Z,67.30
2022-10-08T21:39:05.172Z,66.70
2022-10-08T21:41:33.746Z,66.80
2022-10-08T21:44:02.062Z,66.70
2022-10-08T21:46:31.982Z,66.90
2022-10-08T21:49:01.772Z,66.80
2022-10-08T21:51:30.298Z,66.70
2022-10-08T21:53:58.963Z,67.20
2022-10-08T21:56:28.257Z,67.30
2022-10-08T21:58:58.162Z,66.70
2022-10-08T22:01:38.478Z,67.20
2022-10-08T22:04:09.084Z,67.20
2022-10-08T22:06:38.240Z,67.20
2022-10-08T22:09:06.792Z,67.20
2022-10-08T22:11:33.602Z,67.20
2022-10-08T22:14:00.324Z,66.60
2022-10-08T22:16:29.462Z,67.20
2022-10-08T22:18:57.108Z,67.20
2022-10-08T22:21:24.178Z,67.10
2022-10-08T22:23:51.660Z,67.10
2022-10-08T22:26:23.853Z,67.10
2022-10-08T22:28:50.988Z,67.10
2022-10-08T22:31:19.351Z,67.00
2022-10-08T22:33:46.737Z,67.00
2022-10-08T22:36:15.356Z,67.00
2022-10-08T22:38:43.276Z,67.00
2022-10-08T22:41:17.842Z,67.00
2022-10-08T22:43:45.325Z,66.30
2022-10-08T22:46:36.829Z,66.90
2022-10-08T22:49:07.101Z,66.90
2022-10-08T22:51:33.813Z,66.90
2022-10-08T22:54:00.559Z,66.90
2022-10-08T22:56:29.610Z,67.00
2022-10-08T22:58:58.024Z,66.80
2022-10-08T23:01:26.734Z,66.20
2022-10-08T23:03:53.429Z,66.30
2022-10-08T23:06:31.664Z,66.30
2022-10-08T23:09:00.313Z,66.20
2022-10-08T23:11:28.133Z,66.30
2022-10-08T23:13:56.724Z,66.60
2022-10-08T23:16:24.620Z,66.20
2022-10-08T23:19:00.015Z,66.20
2022-10-08T23:21:27.421Z,66.20
2022-10-08T23:23:54.675Z,66.10
2022-10-08T23:26:22.502Z,66.20
2022-10-08T23:28:57.329Z,66.10
2022-10-08T23:31:26.586Z,66.10
2022-10-08T23:33:54.172Z,66.10
2022-10-08T23:36:23.493Z,66.10
2022-10-08T23:38:50.673Z,68.40
2022-10-08T23:41:17.958Z,66.00
2022-10-08T23:43:46.585Z,66.00
2022-10-08T23:46:15.865Z,66.30
2022-10-08T23:48:43.253Z,65.90
2022-10-08T23:51:11.387Z,65.90
2022-10-08T23:53:38.482Z,65.90
2022-10-08T23:56:06.104Z,65.90
2022-10-08T23:58:32.857Z,65.90
